Time;durP1;ratioP1;P1;durP2;ratioP2;P2;SDS_P1;SDS_P2;PMS_P1;PMS_P2;Temp;Humidity;BMP_temperature;BMP_pressure;BME280_temperature;BME280_humidity;BME280_pressure;Samples;Min_cycle;Max_cycle;Signal;HPM_P1;HPM_P2
2022/05/22 00:01:59;;;;;;;1.97;0.80;;;;;;;21.05;53.56;98496.47;6096539;23;20510;-92
2022/05/22 00:04:41;;;;;;;2.27;1.10;;;;;;;20.99;53.31;98491.81;6096147;23;20160;-92
2022/05/22 00:07:31;;;;;;;1.20;0.60;;;;;;;21.01;53.11;98492.47;6096451;23;20160;-93
2022/05/22 00:10:10;;;;;;;1.13;0.70;;;;;;;20.98;53.23;98493.63;6122384;23;20196;-92
2022/05/22 00:12:50;;;;;;;1.37;0.57;;;;;;;20.96;53.32;98486.78;6098706;23;20176;-92
2022/05/22 00:16:36;;;;;;;1.63;0.70;;;;;;;20.97;52.69;98486.63;6098502;23;20611;-93
2022/05/22 00:18:35;;;;;;;2.40;0.63;;;;;;;20.87;52.43;98483.25;6099717;23;20486;-93
2022/05/22 00:21:17;;;;;;;1.73;0.57;;;;;;;20.80;52.32;98483.09;6098982;23;20149;-93
2022/05/22 00:23:54;;;;;;;1.77;0.70;;;;;;;20.76;51.80;98481.72;6100364;23;20140;-93
2022/05/22 00:26:39;;;;;;;2.10;0.60;;;;;;;20.53;53.17;98479.78;6098576;23;20573;-93
2022/05/22 00:29:25;;;;;;;2.17;0.60;;;;;;;20.41;53.01;98481.91;6098376;23;20259;-93
2022/05/22 00:32:07;;;;;;;0.90;0.53;;;;;;;20.25;52.76;98480.97;6123849;23;20584;-93
2022/05/22 00:34:53;;;;;;;1.70;0.70;;;;;;;20.11;53.40;98469.88;6124071;23;20160;-93
2022/05/22 00:37:48;;;;;;;0.93;0.40;;;;;;;19.99;53.14;98465.81;6098429;23;20152;-92
2022/05/22 00:40:25;;;;;;;2.40;0.97;;;;;;;19.97;53.38;98473.09;6098056;23;20152;-93
2022/05/22 00:43:03;;;;;;;1.23;0.60;;;;;;;20.00;51.64;98472.78;6122576;23;20202;-93
2022/05/22 00:45:43;;;;;;;1.07;0.40;;;;;;;20.00;51.34;98459.47;6122782;23;20176;-92
2022/05/22 00:48:22;;;;;;;4.97;0.60;;;;;;;20.03;51.27;98469.81;6098002;23;20156;-93
2022/05/22 00:51:14;;;;;;;0.70;0.50;;;;;;;20.03;51.61;98474.28;6095719;23;20239;-93
2022/05/22 00:53:57;;;;;;;0.97;0.53;;;;;;;19.96;52.35;98471.44;6098254;23;20156;-93
2022/05/22 00:56:43;;;;;;;1.40;0.67;;;;;;;20.11;52.35;98467.19;6097980;23;20164;-94
2022/05/22 00:59:24;;;;;;;1.17;0.50;;;;;;;20.06;52.83;98466.84;6122586;23;20149;-94
2022/05/22 01:02:11;;;;;;;0.63;0.50;;;;;;;19.86;53.89;98459.22;6098299;23;20164;-93
2022/05/22 01:04:54;;;;;;;1.20;0.57;;;;;;;19.78;53.42;98467.13;6098090;23;20180;-94
2022/05/22 01:07:48;;;;;;;0.90;0.50;;;;;;;19.75;53.68;98462.97;6098132;23;20152;-93
2022/05/22 01:10:27;;;;;;;1.50;0.90;;;;;;;19.53;55.42;98464.28;6097294;23;20200;-93
2022/05/22 01:13:31;;;;;;;1.13;0.60;;;;;;;19.54;56.32;98454.47;6097948;23;20175;-93
2022/05/22 01:16:08;;;;;;;1.30;0.60;;;;;;;19.77;55.92;98450.34;6090186;23;20160;-93
2022/05/22 01:19:00;;;;;;;2.40;0.90;;;;;;;19.81;56.11;98449.03;6097850;23;20171;-92
2022/05/22 01:21:40;;;;;;;1.80;0.83;;;;;;;19.87;55.99;98442.25;6098143;23;20157;-93
2022/05/22 01:24:20;;;;;;;1.93;0.80;;;;;;;19.80;57.32;98450.03;6096964;23;20507;-92
2022/05/22 01:27:03;;;;;;;3.50;0.60;;;;;;;19.74;57.02;98444.47;6099410;23;20137;-92
2022/05/22 01:29:43;;;;;;;1.33;0.60;;;;;;;19.75;56.81;98438.19;6097934;23;20287;-93
2022/05/22 01:32:19;;;;;;;0.93;0.47;;;;;;;19.72;57.23;98435.84;6097873;23;20156;-94
2022/05/22 01:35:02;;;;;;;4.60;0.87;;;;;;;19.72;57.15;98434.00;6097883;23;20156;-93
2022/05/22 01:37:59;;;;;;;1.27;0.40;;;;;;;19.70;57.00;98433.34;6121561;23;20156;-93
2022/05/22 01:40:45;;;;;;;1.13;0.40;;;;;;;19.64;56.66;98439.25;6097781;23;20168;-93
2022/05/22 01:43:39;;;;;;;1.40;0.67;;;;;;;19.62;56.57;98430.63;6098827;23;20148;-93
2022/05/22 01:46:18;;;;;;;1.50;0.40;;;;;;;19.62;56.79;98435.94;6122101;23;20164;-92
2022/05/22 01:49:13;;;;;;;1.00;0.57;;;;;;;19.58;57.07;98434.56;6097187;23;20190;-93
2022/05/22 01:51:57;;;;;;;2.70;0.93;;;;;;;19.55;56.75;98435.69;6122194;23;20156;-92
2022/05/22 01:54:36;;;;;;;2.27;0.67;;;;;;;19.56;56.00;98434.72;6097752;23;20152;-93
2022/05/22 01:57:19;;;;;;;0.70;0.53;;;;;;;19.54;55.99;98435.88;6122320;23;20215;-92
2022/05/22 02:00:01;;;;;;;2.57;0.97;;;;;;;19.44;56.01;98427.16;6097493;23;20172;-93
2022/05/22 02:02:47;;;;;;;0.97;0.50;;;;;;;19.42;57.07;98426.44;6123362;23;20160;-93
2022/05/22 02:05:23;;;;;;;1.57;0.50;;;;;;;19.39;56.73;98424.13;6121997;23;20199;-92
2022/05/22 02:10:50;;;;;;;1.63;0.53;;;;;;;19.51;56.67;98422.88;6098911;23;20186;-93
2022/05/22 02:13:47;;;;;;;0.67;0.50;;;;;;;19.46;56.66;98430.47;6097437;23;20184;-92
2022/05/22 02:16:18;;;;;;;2.10;0.93;;;;;;;19.54;56.73;98426.06;6097204;23;20184;-92
2022/05/22 02:18:57;;;;;;;2.10;0.70;;;;;;;19.53;56.47;98426.22;6097314;23;20299;-93
2022/05/22 02:21:41;;;;;;;1.00;0.57;;;;;;;19.51;56.24;98420.22;6097212;23;20188;-92
2022/05/22 02:24:17;;;;;;;1.97;0.63;;;;;;;19.39;56.81;98430.25;6096917;23;20156;-92
2022/05/22 02:26:57;;;;;;;2.53;0.80;;;;;;;19.39;56.32;98424.94;6097391;23;20156;-92
2022/05/22 02:29:46;;;;;;;1.83;0.67;;;;;;;19.36;55.60;98419.06;6096252;23;20192;-92
2022/05/22 02:32:27;;;;;;;0.93;0.43;;;;;;;19.48;55.20;98426.69;6098032;23;20133;-92
2022/05/22 02:35:18;;;;;;;0.93;0.40;;;;;;;19.38;55.76;98423.28;6097130;23;20161;-91
2022/05/22 02:38:03;;;;;;;1.77;0.67;;;;;;;19.37;56.10;98423.38;6097234;23;20164;-92
2022/05/22 02:40:45;;;;;;;2.20;0.60;;;;;;;19.28;56.53;98419.84;6096915;23;20161;-93
2022/05/22 02:43:28;;;;;;;1.37;0.80;;;;;;;19.34;57.30;98421.06;6120908;23;20576;-93
2022/05/22 02:46:26;;;;;;;2.37;0.60;;;;;;;19.39;57.84;98418.81;6097080;23;20164;-94
2022/05/22 02:49:17;;;;;;;0.73;0.33;;;;;;;19.31;57.81;98411.53;6097062;23;20224;-93
2022/05/22 02:52:02;;;;;;;0.70;0.43;;;;;;;19.25;58.09;98411.31;6097253;23;20222;-93
2022/05/22 02:54:39;;;;;;;1.10;0.40;;;;;;;19.27;57.13;98419.97;6122504;23;20159;-93
2022/05/22 02:57:22;;;;;;;1.63;0.80;;;;;;;19.31;57.01;98421.34;6096924;23;20152;-93
2022/05/22 03:00:08;;;;;;;1.60;0.50;;;;;;;19.27;57.44;98426.13;6121588;23;20141;-93
2022/05/22 03:03:06;;;;;;;3.70;0.80;;;;;;;19.38;56.75;98427.75;6120277;23;20318;-94
2022/05/22 03:08:58;;;;;;;1.83;0.77;;;;;;;19.42;58.24;98429.94;6097964;23;20187;-93
2022/05/22 03:11:40;;;;;;;2.37;1.00;;;;;;;19.52;58.58;98424.56;6096856;23;20191;-93
2022/05/22 03:14:25;;;;;;;1.73;0.70;;;;;;;19.40;59.13;98431.09;6102309;23;20226;-93
2022/05/22 03:17:04;;;;;;;0.87;0.53;;;;;;;19.44;58.58;98427.97;6101676;23;20163;-93
2022/05/22 03:20:02;;;;;;;3.87;1.00;;;;;;;19.51;58.21;98425.53;6100802;23;20223;-92
2022/05/22 03:22:44;;;;;;;3.00;0.90;;;;;;;19.59;57.79;98418.47;6101389;23;20160;-92
2022/05/22 03:25:29;;;;;;;4.67;1.43;;;;;;;19.66;58.41;98421.31;6126069;23;20160;-93
2022/05/22 03:28:10;;;;;;;27.00;10.80;;;;;;;19.72;58.46;98422.53;6125690;23;20154;-93
2022/05/22 03:30:55;;;;;;;4.77;2.10;;;;;;;19.75;57.63;98420.41;6101531;23;20179;-93
2022/05/22 03:33:37;;;;;;;1.80;0.60;;;;;;;19.82;57.14;98418.78;6127521;23;20155;-94
2022/05/22 03:36:19;;;;;;;3.07;1.20;;;;;;;19.92;55.85;98422.19;6102039;23;20163;-93
2022/05/22 03:39:14;;;;;;;1.93;0.90;;;;;;;19.91;55.46;98420.53;6127357;23;20215;-92
2022/05/22 03:41:56;;;;;;;3.87;1.20;;;;;;;20.04;54.80;98420.09;6101540;23;20163;-93
2022/05/22 03:44:55;;;;;;;1.90;1.00;;;;;;;20.20;55.46;98423.66;6125466;23;20525;-93
2022/05/22 03:47:34;;;;;;;2.50;1.00;;;;;;;20.19;54.81;98423.84;6101360;23;20182;-92
2022/05/22 03:50:20;;;;;;;9.70;1.53;;;;;;;20.35;54.57;98428.44;6125657;23;20187;-92
2022/05/22 03:53:02;;;;;;;1.70;0.90;;;;;;;20.54;54.68;98421.06;6101397;23;20159;-92
2022/05/22 03:55:47;;;;;;;4.77;1.00;;;;;;;20.63;54.85;98419.25;6126357;23;20174;-93
2022/05/22 03:58:47;;;;;;;3.57;1.37;;;;;;;20.74;54.64;98424.28;6125716;23;20668;-92
2022/05/22 04:01:32;;;;;;;2.37;1.30;;;;;;;20.88;54.26;98430.81;6101353;23;20163;-93
2022/05/22 04:04:17;;;;;;;6.63;1.87;;;;;;;21.06;54.30;98420.88;6100273;23;20156;-92
2022/05/22 04:06:59;;;;;;;5.13;1.43;;;;;;;21.09;54.13;98426.75;6100833;23;20156;-93
2022/05/22 04:09:45;;;;;;;9.90;1.67;;;;;;;21.34;54.28;98423.09;6101194;23;20246;-93
2022/05/22 04:12:30;;;;;;;2.47;1.27;;;;;;;21.55;53.16;98424.44;6126592;23;20282;-92
2022/05/22 04:15:23;;;;;;;3.47;1.30;;;;;;;21.54;53.94;98422.78;6100893;23;20507;-91
2022/05/22 04:18:22;;;;;;;4.43;1.20;;;;;;;21.68;53.69;98420.25;6100472;23;20156;-92
2022/05/22 04:21:04;;;;;;;4.07;1.30;;;;;;;21.92;53.14;98414.94;6125592;23;20152;-93
2022/05/22 04:26:52;;;;;;;4.57;1.60;;;;;;;22.04;53.10;98415.41;6126716;23;20151;-93
2022/05/22 04:29:38;;;;;;;4.03;1.30;;;;;;;22.11;53.44;98424.41;6127153;23;20167;-92
2022/05/22 04:32:14;;;;;;;3.90;1.27;;;;;;;22.29;52.86;98425.03;6101249;23;20654;-90
2022/05/22 04:34:54;;;;;;;2.67;1.47;;;;;;;22.29;53.59;98424.19;6102205;23;20238;-92
2022/05/22 04:37:49;;;;;;;4.43;1.70;;;;;;;22.45;52.88;98430.31;6100492;23;20163;-93
2022/05/22 04:40:47;;;;;;;4.10;1.67;;;;;;;22.60;52.95;98435.75;6125609;23;20166;-91
2022/05/22 04:43:28;;;;;;;2.90;1.50;;;;;;;22.79;52.36;98438.06;6126929;23;20155;-91
2022/05/22 04:46:17;;;;;;;9.53;1.73;;;;;;;22.83;51.87;98438.53;6127267;23;20136;-92
2022/05/22 04:48:59;;;;;;;4.23;1.40;;;;;;;22.83;51.93;98446.53;6126522;23;20160;-92
2022/05/22 04:54:53;;;;;;;1.97;1.10;;;;;;;22.91;51.33;98457.19;6126614;23;20152;-90
2022/05/22 04:58:12;;;;;;;3.03;1.50;;;;;;;22.96;51.37;98457.50;6126957;23;20598;-92
2022/05/22 05:00:54;;;;;;;3.23;1.40;;;;;;;23.15;51.07;98452.56;6119793;23;20152;-93
2022/05/22 05:03:36;;;;;;;3.67;1.83;;;;;;;23.23;50.96;98457.84;6127378;23;20662;-91
2022/05/22 05:06:13;;;;;;;3.33;1.47;;;;;;;23.23;49.89;98454.34;6128269;23;20132;-93
2022/05/22 05:08:52;;;;;;;4.73;2.17;;;;;;;23.36;50.09;98445.72;6102660;23;20151;-92
2022/05/22 05:11:31;;;;;;;3.47;1.40;;;;;;;23.43;50.04;98442.19;6102442;23;20572;-93
2022/05/22 05:14:18;;;;;;;4.93;2.23;;;;;;;23.56;49.70;98434.41;6102821;23;20475;-92
2022/05/22 05:17:12;;;;;;;2.80;1.43;;;;;;;23.55;50.21;98431.91;6127507;23;20575;-93
2022/05/22 05:20:16;;;;;;;4.27;1.90;;;;;;;23.70;49.50;98422.06;6102847;23;20579;-92
2022/05/22 05:23:00;;;;;;;3.87;1.50;;;;;;;23.81;49.18;98427.84;6102985;23;20159;-92
2022/05/22 05:32:11;;;;;;;4.87;1.63;;;;;;;23.90;48.71;98430.44;6091012;23;20159;-92
2022/05/22 05:35:09;;;;;;;3.37;1.40;;;;;;;23.85;48.61;98434.47;6102993;23;20166;-92
2022/05/22 05:37:59;;;;;;;3.57;1.67;;;;;;;23.93;48.18;98430.91;6128052;23;20159;-93
2022/05/22 05:40:42;;;;;;;4.50;1.77;;;;;;;23.97;48.52;98439.41;6103309;23;20140;-92
2022/05/22 05:43:33;;;;;;;2.87;1.47;;;;;;;24.10;48.38;98437.81;6128218;23;20607;-92
2022/05/22 05:46:13;;;;;;;3.33;1.37;;;;;;;24.18;48.05;98434.22;6127977;23;20142;-92
2022/05/22 05:49:08;;;;;;;8.70;1.70;;;;;;;24.13;48.63;98433.94;6126577;23;20168;-92
2022/05/22 05:51:50;;;;;;;5.07;1.97;;;;;;;24.04;47.62;98429.63;6015600;23;20169;-90
2022/05/22 05:54:30;;;;;;;4.03;1.67;;;;;;;24.18;48.28;98420.81;6015397;23;20556;-93
2022/05/22 05:57:14;;;;;;;2.30;1.20;;;;;;;24.15;47.20;98427.38;6107936;23;20159;-91
2022/05/22 06:00:21;;;;;;;2.40;1.30;;;;;;;24.16;46.18;98428.22;6127968;23;20568;-93
2022/05/22 06:03:47;;;;;;;5.63;1.50;;;;;;;24.39;47.55;98419.06;6095154;23;20495;-92
2022/05/22 06:06:32;;;;;;;3.47;1.97;;;;;;;24.44;48.22;98421.19;6095709;23;20612;-93
2022/05/22 06:09:12;;;;;;;4.63;1.73;;;;;;;24.49;49.56;98420.63;6127952;23;20486;-93
2022/05/22 06:12:09;;;;;;;4.00;1.97;;;;;;;24.56;49.41;98422.38;6127191;23;20543;-91
2022/05/22 06:15:06;;;;;;;4.13;1.50;;;;;;;24.50;49.22;98424.97;6102444;23;20155;-91
2022/05/22 06:17:58;;;;;;;5.20;2.30;;;;;;;24.52;49.90;98426.44;6127440;23;20163;-92
2022/05/22 06:20:50;;;;;;;3.17;1.67;;;;;;;24.57;50.77;98426.72;6102531;23;20176;-92
2022/05/22 06:23:30;;;;;;;4.03;1.77;;;;;;;24.77;50.27;98422.44;6100739;23;20484;-92
2022/05/22 06:26:12;;;;;;;3.97;1.53;;;;;;;24.89;50.53;98420.16;6101940;23;20174;-92
2022/05/22 06:32:48;;;;;;;2.53;1.23;;;;;;;25.41;47.06;98414.50;5980335;24;20192;-91
2022/05/22 06:35:36;;;;;;;2.33;1.30;;;;;;;25.92;47.28;98423.22;5970475;23;20241;-92
2022/05/22 06:41:43;;;;;;;3.47;0.90;;;;;;;26.80;43.23;98423.41;6011633;23;20214;-92
2022/05/22 06:44:27;;;;;;;2.30;1.13;;;;;;;27.12;43.22;98428.06;6091018;23;20156;-92
2022/05/22 06:47:11;;;;;;;3.83;1.20;;;;;;;27.38;43.02;98422.75;6128227;23;20136;-92
2022/05/22 06:50:46;;;;;;;;;;;;;;;;;;;;;
2022/05/22 06:52:59;;;;;;;1.83;1.23;;;;;;;27.73;43.43;98426.13;6100209;23;20206;-92
2022/05/22 06:55:51;;;;;;;4.57;1.33;;;;;;;27.76;42.33;98430.28;6101800;23;20166;-92
2022/05/22 06:58:33;;;;;;;3.22;1.60;;;;;;;27.93;43.58;98428.84;6102373;23;20226;-91
2022/05/22 07:01:42;;;;;;;2.00;1.27;;;;;;;28.25;43.21;98425.28;6102073;23;20576;-92
2022/05/22 07:04:52;;;;;;;3.88;1.67;;;;;;;28.58;42.24;98431.47;6123666;23;20504;-94
2022/05/22 07:07:50;;;;;;;3.38;1.52;;;;;;;28.99;42.46;98423.03;6127696;23;20156;-92
2022/05/22 07:13:51;;;;;;;3.85;1.45;;;;;;;29.06;40.30;98423.81;6127424;23;20273;-91
2022/05/22 07:16:47;;;;;;;3.17;1.40;;;;;;;28.82;39.73;98421.88;6092841;23;20525;-92
2022/05/22 07:19:54;;;;;;;2.75;1.23;;;;;;;29.05;40.15;98415.94;6100892;23;20152;-91
2022/05/22 07:22:31;;;;;;;2.35;1.00;;;;;;;29.19;34.70;98420.22;6127368;23;20156;-92
2022/05/22 07:25:11;;;;;;;2.13;0.80;;;;;;;29.10;31.53;98419.66;6127723;23;20166;-92
2022/05/22 07:28:17;;;;;;;2.13;1.00;;;;;;;29.02;31.97;98416.38;6127676;23;20136;-91
2022/05/22 07:30:57;;;;;;;0.73;0.45;;;;;;;29.07;30.60;98414.69;6094431;23;20218;-91
2022/05/22 07:34:20;;;;;;;0.95;0.50;;;;;;;29.18;31.24;98410.47;6100709;23;20490;-93
2022/05/22 07:40:53;;;;;;;1.30;0.55;;;;;;;29.40;29.96;98406.44;5953895;24;20341;-91
2022/05/22 07:47:31;;;;;;;;;;;;;;;;;;;;;
2022/05/22 07:53:54;;;;;;;1.55;0.50;;;;;;;30.25;28.95;98399.47;5944356;24;20264;-92
2022/05/22 08:00:52;;;;;;;8.07;1.05;;;;;;;30.22;29.65;98398.06;6011295;23;20162;-93
2022/05/22 08:03:49;;;;;;;4.18;0.80;;;;;;;30.26;28.31;98382.22;5927496;24;20165;-92
2022/05/22 08:07:20;;;;;;;;;;;;;;;;;;;;;
2022/05/22 08:10:32;;;;;;;2.55;0.95;;;;;;;30.49;29.12;98390.50;5872377;24;20600;-92
2022/05/22 08:13:51;;;;;;;3.38;1.67;;;;;;;30.70;28.54;98389.22;5911022;24;20253;-94
2022/05/22 08:16:42;;;;;;;;;;;;;;;;;;;;;
2022/05/22 08:20:12;;;;;;;6.65;0.90;;;;;;;30.78;29.24;98378.94;5819616;24;20319;-92
2022/05/22 08:27:02;;;;;;;1.35;0.50;;;;;;;30.82;29.18;98381.97;5741611;25;20183;-94
2022/05/22 08:33:41;;;;;;;;;;;;;;;;;;;;;
2022/05/22 08:39:55;;;;;;;2.20;0.73;;;;;;;31.19;28.04;98390.88;5697487;24;20196;-92
2022/05/22 08:43:29;;;;;;;;;;;;;;;;;;;;;
2022/05/22 09:06:22;;;;;;;;;;;;;;;;;;;;;
2022/05/22 09:12:15;;;;;;;5.70;0.88;;;;;;;30.50;28.65;98367.84;6011987;23;20193;-90
2022/05/22 12:11:19;;;;;;;;;;;;;;;;;;;;;
2022/05/22 17:26:39;;;;;;;1.27;0.68;;;;;;;27.47;35.43;98236.84;5928163;24;20175;-93
2022/05/22 17:29:16;;;;;;;1.48;0.70;;;;;;;27.28;35.32;98244.69;5881639;24;20158;-90
2022/05/22 17:32:30;;;;;;;1.65;0.77;;;;;;;27.35;35.62;98245.53;5906023;24;20161;-92
2022/05/22 17:35:07;;;;;;;6.88;1.10;;;;;;;27.34;35.66;98234.97;5829638;24;20166;-91
2022/05/22 17:37:41;;;;;;;1.20;0.73;;;;;;;27.27;35.58;98235.00;5901869;24;20161;-91
2022/05/22 17:41:02;;;;;;;1.77;1.05;;;;;;;27.22;35.74;98237.47;5893326;24;20578;-92
2022/05/22 17:43:23;;;;;;;2.70;0.87;;;;;;;27.06;35.79;98245.13;5973899;23;20530;-91
2022/05/22 17:45:51;;;;;;;1.08;0.55;;;;;;;26.93;35.90;98240.56;5988635;23;20158;-90
2022/05/22 17:48:58;;;;;;;;;;;;;;;;;;;;;
2022/05/22 17:51:31;;;;;;;1.87;0.60;;;;;;;26.93;36.25;98239.75;6095805;23;20277;-91
2022/05/22 17:54:22;;;;;;;1.20;0.67;;;;;;;26.92;36.15;98244.28;6125960;23;20160;-90
2022/05/22 17:57:05;;;;;;;5.43;0.80;;;;;;;27.02;36.50;98244.72;6128076;23;20235;-91
2022/05/22 17:59:40;;;;;;;2.25;0.70;;;;;;;27.04;35.91;98248.03;6127687;23;20173;-92
2022/05/22 18:02:05;;;;;;;7.50;0.90;;;;;;;27.01;36.16;98247.63;6127885;23;20516;-87
2022/05/22 18:04:34;;;;;;;8.97;1.00;;;;;;;26.87;36.62;98244.09;6127594;23;20159;-90
2022/05/22 18:07:18;;;;;;;2.63;0.87;;;;;;;26.94;36.14;98252.97;6126552;23;20291;-89
2022/05/22 18:09:44;;;;;;;6.63;1.20;;;;;;;26.83;36.23;98251.72;6126830;23;20337;-90
2022/05/22 18:21:32;;;;;;;1.37;0.70;;;;;;;26.63;36.48;98276.88;6128517;23;20210;-91
2022/05/22 18:27:17;;;;;;;2.17;0.70;;;;;;;26.32;36.14;98274.72;6128282;23;20213;-91
2022/05/22 18:33:21;;;;;;;1.00;0.50;;;;;;;26.24;36.62;98280.28;6092934;23;20171;-92
2022/05/22 18:35:59;;;;;;;2.80;1.27;;;;;;;26.19;36.89;98288.94;6126690;23;20222;-92
2022/05/22 18:38:55;;;;;;;3.63;1.07;;;;;;;26.15;36.89;98287.66;6128054;23;20287;-92
2022/05/22 18:41:33;;;;;;;1.30;0.57;;;;;;;26.00;37.05;98292.31;6128123;23;20156;-91
2022/05/22 18:44:38;;;;;;;5.00;0.83;;;;;;;26.03;36.90;98291.94;6127402;23;20155;-92
2022/05/22 18:47:22;;;;;;;1.77;0.60;;;;;;;26.00;37.15;98295.00;6098259;23;20156;-92
2022/05/22 18:50:43;;;;;;;1.47;0.70;;;;;;;25.91;36.95;98293.53;6128301;23;20662;-91
2022/05/22 18:53:16;;;;;;;1.50;0.77;;;;;;;25.70;37.19;98300.81;6123070;23;20155;-92
2022/05/22 18:56:25;;;;;;;0.83;0.50;;;;;;;25.70;37.32;98296.28;6128198;23;20132;-91
2022/05/22 19:02:51;;;;;;;1.17;0.53;;;;;;;25.59;37.28;98304.88;6052694;23;20174;-92
2022/05/22 19:09:49;;;;;;;2.07;0.70;;;;;;;25.54;37.20;98301.94;6037967;23;20286;-91
2022/05/22 19:16:57;;;;;;;;;;;;;;;;;;;;;
2022/05/22 19:33:11;;;;;;;1.10;0.40;;;;;;;25.44;36.90;98317.53;6131621;23;20210;-92
2022/05/22 20:10:49;;;;;;;1.47;0.80;;;;;;;25.13;37.90;98330.47;6128287;23;20253;-93
2022/05/22 22:27:31;;;;;;;;;;;;;;;;;;;;;
2022/05/22 22:34:28;;;;;;;1.30;0.60;;;;;;;22.66;44.12;98324.75;5871241;24;20243;-93
2022/05/22 23:23:41;;;;;;;;;;;;;;;;;;;;;
2022/05/22 23:27:06;;;;;;;;;;;;;;;;;;;;;
2022/05/22 23:33:49;;;;;;;2.43;0.93;;;;;;;21.88;43.67;98336.22;6067268;23;20235;-92
2022/05/22 23:37:20;;;;;;;3.77;0.60;;;;;;;21.89;43.11;98337.06;6040007;23;20251;-92
2022/05/22 23:43:30;;;;;;;1.20;0.60;;;;;;;21.98;43.31;98342.22;5970696;24;20223;-93
2022/05/22 23:50:10;;;;;;;3.67;0.90;;;;;;;22.14;43.01;98346.66;5926628;24;20179;-94
